sensor_id;sensor_type;location;lat;lon;timestamp;temperature;humidity
20045;DHT22;10183;47.808;9.476;2023-06-05T00:02:04;11.40;99.90
20045;DHT22;10183;47.808;9.476;2023-06-05T00:04:30;11.40;99.90
20045;DHT22;10183;47.808;9.476;2023-06-05T00:06:56;11.30;99.90
20045;DHT22;10183;47.808;9.476;2023-06-05T00:09:23;11.10;99.90
20045;DHT22;10183;47.808;9.476;2023-06-05T00:11:49;11.00;99.90
20045;DHT22;10183;47.808;9.476;2023-06-05T00:14:16;11.00;99.90
20045;DHT22;10183;47.808;9.476;2023-06-05T00:16:43;10.90;99.90
20045;DHT22;10183;47.808;9.476;2023-06-05T00:19:09;10.80;99.90
20045;DHT22;10183;47.808;9.476;2023-06-05T00:21:35;10.90;99.90
20045;DHT22;10183;47.808;9.476;2023-06-05T00:24:02;10.70;99.90
20045;DHT22;10183;47.808;9.476;2023-06-05T00:26:28;10.80;99.90
20045;DHT22;10183;47.808;9.476;2023-06-05T00:28:54;10.90;99.90
20045;DHT22;10183;47.808;9.476;2023-06-05T00:31:20;10.80;99.90
20045;DHT22;10183;47.808;9.476;2023-06-05T00:33:48;10.80;99.90
20045;DHT22;10183;47.808;9.476;2023-06-05T00:36:15;10.80;99.90
20045;DHT22;10183;47.808;9.476;2023-06-05T00:38:41;10.80;99.90
20045;DHT22;10183;47.808;9.476;2023-06-05T00:41:07;10.80;99.90
20045;DHT22;10183;47.808;9.476;2023-06-05T00:43:33;10.70;99.90
20045;DHT22;10183;47.808;9.476;2023-06-05T00:46:01;10.80;99.90
20045;DHT22;10183;47.808;9.476;2023-06-05T00:48:29;10.70;99.90
20045;DHT22;10183;47.808;9.476;2023-06-05T00:50:57;10.60;99.90
20045;DHT22;10183;47.808;9.476;2023-06-05T00:53:24;10.60;99.90
20045;DHT22;10183;47.808;9.476;2023-06-05T00:55:51;10.60;99.90
20045;DHT22;10183;47.808;9.476;2023-06-05T00:58:18;10.60;99.90
20045;DHT22;10183;47.808;9.476;2023-06-05T01:00:44;10.70;99.90
20045;DHT22;10183;47.808;9.476;2023-06-05T01:03:12;10.70;99.90
20045;DHT22;10183;47.808;9.476;2023-06-05T01:05:38;10.80;99.90
20045;DHT22;10183;47.808;9.476;2023-06-05T01:08:06;10.70;99.90
20045;DHT22;10183;47.808;9.476;2023-06-05T01:10:35;10.80;99.90
20045;DHT22;10183;47.808;9.476;2023-06-05T01:13:04;10.80;99.90
20045;DHT22;10183;47.808;9.476;2023-06-05T01:15:32;10.70;99.90
20045;DHT22;10183;47.808;9.476;2023-06-05T01:18:00;10.60;99.90
20045;DHT22;10183;47.808;9.476;2023-06-05T01:20:36;10.50;99.90
20045;DHT22;10183;47.808;9.476;2023-06-05T01:23:06;10.40;99.90
20045;DHT22;10183;47.808;9.476;2023-06-05T01:25:33;10.20;99.90
20045;DHT22;10183;47.808;9.476;2023-06-05T01:28:16;10.20;99.90
20045;DHT22;10183;47.808;9.476;2023-06-05T01:30:52;10.10;99.90
20045;DHT22;10183;47.808;9.476;2023-06-05T01:33:30;10.10;99.90
20045;DHT22;10183;47.808;9.476;2023-06-05T01:35:58;10.00;99.90
20045;DHT22;10183;47.808;9.476;2023-06-05T01:38:34;10.00;99.90
20045;DHT22;10183;47.808;9.476;2023-06-05T01:41:02;10.00;99.90
20045;DHT22;10183;47.808;9.476;2023-06-05T01:43:29;10.00;99.90
20045;DHT22;10183;47.808;9.476;2023-06-05T01:45:57;10.00;99.90
20045;DHT22;10183;47.808;9.476;2023-06-05T01:48:25;9.90;99.90
20045;DHT22;10183;47.808;9.476;2023-06-05T01:50:57;10.00;99.90
20045;DHT22;10183;47.808;9.476;2023-06-05T01:53:25;10.00;99.90
20045;DHT22;10183;47.808;9.476;2023-06-05T01:55:51;10.10;99.90
20045;DHT22;10183;47.808;9.476;2023-06-05T01:58:25;10.10;99.90
20045;DHT22;10183;47.808;9.476;2023-06-05T02:00:53;10.20;99.90
20045;DHT22;10183;47.808;9.476;2023-06-05T02:03:20;10.30;99.90
20045;DHT22;10183;47.808;9.476;2023-06-05T02:05:46;10.30;99.90
20045;DHT22;10183;47.808;9.476;2023-06-05T02:08:13;10.30;99.90
20045;DHT22;10183;47.808;9.476;2023-06-05T02:10:45;10.30;99.90
20045;DHT22;10183;47.808;9.476;2023-06-05T02:13:12;10.40;99.90
20045;DHT22;10183;47.808;9.476;2023-06-05T02:15:41;10.40;99.90
20045;DHT22;10183;47.808;9.476;2023-06-05T02:18:07;10.60;99.90
20045;DHT22;10183;47.808;9.476;2023-06-05T02:20:34;10.60;99.90
20045;DHT22;10183;47.808;9.476;2023-06-05T02:23:02;10.70;99.90
20045;DHT22;10183;47.808;9.476;2023-06-05T02:25:28;10.90;99.90
20045;DHT22;10183;47.808;9.476;2023-06-05T02:27:55;10.90;99.90
20045;DHT22;10183;47.808;9.476;2023-06-05T02:30:22;10.80;99.90
20045;DHT22;10183;47.808;9.476;2023-06-05T02:32:50;10.50;99.90
20045;DHT22;10183;47.808;9.476;2023-06-05T02:35:22;10.30;99.90
20045;DHT22;10183;47.808;9.476;2023-06-05T02:37:50;10.20;99.90
20045;DHT22;10183;47.808;9.476;2023-06-05T02:40:16;10.30;99.90
20045;DHT22;10183;47.808;9.476;2023-06-05T02:42:42;10.50;99.90
20045;DHT22;10183;47.808;9.476;2023-06-05T02:45:09;10.60;99.90
20045;DHT22;10183;47.808;9.476;2023-06-05T02:47:35;10.80;99.90
20045;DHT22;10183;47.808;9.476;2023-06-05T02:50:02;10.80;99.90
20045;DHT22;10183;47.808;9.476;2023-06-05T02:52:28;10.80;99.90
20045;DHT22;10183;47.808;9.476;2023-06-05T02:54:55;10.70;99.90
20045;DHT22;10183;47.808;9.476;2023-06-05T02:57:21;10.60;99.90
20045;DHT22;10183;47.808;9.476;2023-06-05T02:59:48;10.60;99.90
20045;DHT22;10183;47.808;9.476;2023-06-05T03:02:15;10.60;99.90
20045;DHT22;10183;47.808;9.476;2023-06-05T03:04:41;10.50;99.90
20045;DHT22;10183;47.808;9.476;2023-06-05T03:07:09;10.40;99.90
20045;DHT22;10183;47.808;9.476;2023-06-05T03:09:36;10.30;99.90
20045;DHT22;10183;47.808;9.476;2023-06-05T03:12:02;10.20;99.90
20045;DHT22;10183;47.808;9.476;2023-06-05T03:14:29;10.20;99.90
20045;DHT22;10183;47.808;9.476;2023-06-05T03:16:58;10.20;99.90
20045;DHT22;10183;47.808;9.476;2023-06-05T03:19:25;10.00;99.90
20045;DHT22;10183;47.808;9.476;2023-06-05T03:21:52;10.10;99.90
20045;DHT22;10183;47.808;9.476;2023-06-05T03:24:19;10.00;99.90
20045;DHT22;10183;47.808;9.476;2023-06-05T03:26:45;10.10;99.90
20045;DHT22;10183;47.808;9.476;2023-06-05T03:29:12;10.10;99.90
20045;DHT22;10183;47.808;9.476;2023-06-05T03:31:38;10.20;99.90
20045;DHT22;10183;47.808;9.476;2023-06-05T03:34:04;10.10;99.90
20045;DHT22;10183;47.808;9.476;2023-06-05T03:36:32;10.30;99.90
20045;DHT22;10183;47.808;9.476;2023-06-05T03:39:00;10.30;99.90
20045;DHT22;10183;47.808;9.476;2023-06-05T03:41:27;10.30;99.90
20045;DHT22;10183;47.808;9.476;2023-06-05T03:43:53;10.20;99.90
20045;DHT22;10183;47.808;9.476;2023-06-05T03:46:19;10.20;99.90
20045;DHT22;10183;47.808;9.476;2023-06-05T03:48:46;10.10;99.90
20045;DHT22;10183;47.808;9.476;2023-06-05T03:51:15;10.10;99.90
20045;DHT22;10183;47.808;9.476;2023-06-05T03:53:45;10.10;99.90
20045;DHT22;10183;47.808;9.476;2023-06-05T03:56:11;10.20;99.90
20045;DHT22;10183;47.808;9.476;2023-06-05T03:58:41;10.30;99.90
20045;DHT22;10183;47.808;9.476;2023-06-05T04:01:07;10.40;99.90
20045;DHT22;10183;47.808;9.476;2023-06-05T04:03:34;10.50;99.90
20045;DHT22;10183;47.808;9.476;2023-06-05T04:06:03;10.60;99.90
20045;DHT22;10183;47.808;9.476;2023-06-05T04:08:30;10.70;99.90
20045;DHT22;10183;47.808;9.476;2023-06-05T04:10:57;10.80;99.90
20045;DHT22;10183;47.808;9.476;2023-06-05T04:13:23;11.00;99.90
20045;DHT22;10183;47.808;9.476;2023-06-05T04:15:49;11.10;99.90
20045;DHT22;10183;47.808;9.476;2023-06-05T04:18:15;11.00;99.90
20045;DHT22;10183;47.808;9.476;2023-06-05T04:20:42;11.00;99.90
20045;DHT22;10183;47.808;9.476;2023-06-05T04:23:08;11.10;99.90
20045;DHT22;10183;47.808;9.476;2023-06-05T04:25:34;11.20;99.90
20045;DHT22;10183;47.808;9.476;2023-06-05T04:28:04;11.30;99.90
20045;DHT22;10183;47.808;9.476;2023-06-05T04:30:30;11.50;99.90
20045;DHT22;10183;47.808;9.476;2023-06-05T04:32:56;11.60;99.90
20045;DHT22;10183;47.808;9.476;2023-06-05T04:35:23;11.80;99.90
20045;DHT22;10183;47.808;9.476;2023-06-05T04:37:49;11.90;99.90
20045;DHT22;10183;47.808;9.476;2023-06-05T04:40:17;12.10;99.90
20045;DHT22;10183;47.808;9.476;2023-06-05T04:42:44;12.30;99.90
20045;DHT22;10183;47.808;9.476;2023-06-05T04:45:10;12.40;99.90
20045;DHT22;10183;47.808;9.476;2023-06-05T04:47:36;12.60;99.90
20045;DHT22;10183;47.808;9.476;2023-06-05T04:50:04;12.70;99.90
20045;DHT22;10183;47.808;9.476;2023-06-05T04:52:31;12.60;99.90
20045;DHT22;10183;47.808;9.476;2023-06-05T04:54:59;12.70;99.90
20045;DHT22;10183;47.808;9.476;2023-06-05T04:57:29;12.80;99.90
20045;DHT22;10183;47.808;9.476;2023-06-05T04:59:56;12.80;99.90
20045;DHT22;10183;47.808;9.476;2023-06-05T05:02:25;12.80;99.90
20045;DHT22;10183;47.808;9.476;2023-06-05T05:04:52;13.00;99.90
20045;DHT22;10183;47.808;9.476;2023-06-05T05:07:18;13.10;99.90
20045;DHT22;10183;47.808;9.476;2023-06-05T05:09:45;13.10;99.90
20045;DHT22;10183;47.808;9.476;2023-06-05T05:12:11;13.00;99.90
20045;DHT22;10183;47.808;9.476;2023-06-05T05:14:38;13.10;99.90
20045;DHT22;10183;47.808;9.476;2023-06-05T05:17:06;13.30;99.90
20045;DHT22;10183;47.808;9.476;2023-06-05T05:19:32;13.30;99.90
20045;DHT22;10183;47.808;9.476;2023-06-05T05:21:59;13.40;99.90
20045;DHT22;10183;47.808;9.476;2023-06-05T05:24:25;13.50;99.90
20045;DHT22;10183;47.808;9.476;2023-06-05T05:26:52;13.60;99.90
20045;DHT22;10183;47.808;9.476;2023-06-05T05:29:18;13.80;99.90
20045;DHT22;10183;47.808;9.476;2023-06-05T05:31:45;14.00;99.90
20045;DHT22;10183;47.808;9.476;2023-06-05T05:34:11;14.10;99.90
20045;DHT22;10183;47.808;9.476;2023-06-05T05:36:37;14.10;99.90
20045;DHT22;10183;47.808;9.476;2023-06-05T05:39:04;14.10;99.90
20045;DHT22;10183;47.808;9.476;2023-06-05T05:41:30;14.20;99.90
20045;DHT22;10183;47.808;9.476;2023-06-05T05:43:56;14.10;99.90
20045;DHT22;10183;47.808;9.476;2023-06-05T05:46:23;14.20;99.90
20045;DHT22;10183;47.808;9.476;2023-06-05T05:48:49;14.10;99.90
20045;DHT22;10183;47.808;9.476;2023-06-05T05:51:15;14.20;99.90
20045;DHT22;10183;47.808;9.476;2023-06-05T05:53:41;14.10;99.90
20045;DHT22;10183;47.808;9.476;2023-06-05T05:56:07;14.10;99.90
20045;DHT22;10183;47.808;9.476;2023-06-05T05:58:34;14.10;99.90
20045;DHT22;10183;47.808;9.476;2023-06-05T06:01:00;14.30;99.90
20045;DHT22;10183;47.808;9.476;2023-06-05T06:03:26;14.30;99.90
20045;DHT22;10183;47.808;9.476;2023-06-05T06:05:53;14.50;99.90
20045;DHT22;10183;47.808;9.476;2023-06-05T06:08:19;14.50;99.90
20045;DHT22;10183;47.808;9.476;2023-06-05T06:10:46;14.70;99.90
20045;DHT22;10183;47.808;9.476;2023-06-05T06:13:13;14.80;99.90
20045;DHT22;10183;47.808;9.476;2023-06-05T06:15:39;14.90;99.90
20045;DHT22;10183;47.808;9.476;2023-06-05T06:18:06;15.00;99.90
20045;DHT22;10183;47.808;9.476;2023-06-05T06:20:32;15.20;99.90
20045;DHT22;10183;47.808;9.476;2023-06-05T06:23:01;15.30;99.90
20045;DHT22;10183;47.808;9.476;2023-06-05T06:25:28;15.30;99.90
20045;DHT22;10183;47.808;9.476;2023-06-05T06:28:01;15.30;99.90
20045;DHT22;10183;47.808;9.476;2023-06-05T06:30:27;15.30;99.90
20045;DHT22;10183;47.808;9.476;2023-06-05T06:32:54;15.10;99.90
20045;DHT22;10183;47.808;9.476;2023-06-05T06:35:26;15.10;99.90
20045;DHT22;10183;47.808;9.476;2023-06-05T06:37:54;15.30;99.90
20045;DHT22;10183;47.808;9.476;2023-06-05T06:40:21;15.60;99.90
20045;DHT22;10183;47.808;9.476;2023-06-05T06:42:47;16.00;99.90
20045;DHT22;10183;47.808;9.476;2023-06-05T06:45:13;16.30;99.90
20045;DHT22;10183;47.808;9.476;2023-06-05T06:47:40;16.50;99.90
20045;DHT22;10183;47.808;9.476;2023-06-05T06:50:07;16.70;99.90
20045;DHT22;10183;47.808;9.476;2023-06-05T06:52:35;16.90;99.90
20045;DHT22;10183;47.808;9.476;2023-06-05T06:55:01;17.10;99.90
20045;DHT22;10183;47.808;9.476;2023-06-05T06:57:27;17.20;99.90
20045;DHT22;10183;47.808;9.476;2023-06-05T06:59:53;17.30;99.90
20045;DHT22;10183;47.808;9.476;2023-06-05T07:02:22;17.30;99.90
20045;DHT22;10183;47.808;9.476;2023-06-05T07:04:48;17.40;99.90
20045;DHT22;10183;47.808;9.476;2023-06-05T07:07:16;17.40;99.90
20045;DHT22;10183;47.808;9.476;2023-06-05T07:09:44;17.20;99.90
20045;DHT22;10183;47.808;9.476;2023-06-05T07:12:12;17.40;99.90
20045;DHT22;10183;47.808;9.476;2023-06-05T07:14:39;17.50;99.90
20045;DHT22;10183;47.808;9.476;2023-06-05T07:17:06;17.60;99.90
20045;DHT22;10183;47.808;9.476;2023-06-05T07:19:34;17.70;99.90
20045;DHT22;10183;47.808;9.476;2023-06-05T07:22:01;17.90;99.90
20045;DHT22;10183;47.808;9.476;2023-06-05T07:24:30;17.80;99.90
20045;DHT22;10183;47.808;9.476;2023-06-05T07:26:59;17.70;99.90
20045;DHT22;10183;47.808;9.476;2023-06-05T07:29:26;17.80;99.90
20045;DHT22;10183;47.808;9.476;2023-06-05T07:31:54;18.00;99.90
20045;DHT22;10183;47.808;9.476;2023-06-05T07:34:21;18.10;99.90
20045;DHT22;10183;47.808;9.476;2023-06-05T07:36:49;18.20;99.90
20045;DHT22;10183;47.808;9.476;2023-06-05T07:39:17;18.30;99.90
20045;DHT22;10183;47.808;9.476;2023-06-05T07:41:43;18.30;99.90
20045;DHT22;10183;47.808;9.476;2023-06-05T07:44:10;18.40;99.90
20045;DHT22;10183;47.808;9.476;2023-06-05T07:46:39;18.60;99.90
20045;DHT22;10183;47.808;9.476;2023-06-05T07:49:06;18.80;99.90
20045;DHT22;10183;47.808;9.476;2023-06-05T07:51:33;18.90;99.90
20045;DHT22;10183;47.808;9.476;2023-06-05T07:54:12;18.90;99.90
20045;DHT22;10183;47.808;9.476;2023-06-05T07:56:39;19.00;99.90
20045;DHT22;10183;47.808;9.476;2023-06-05T07:59:06;18.90;99.90
20045;DHT22;10183;47.808;9.476;2023-06-05T08:01:34;19.00;99.90
20045;DHT22;10183;47.808;9.476;2023-06-05T08:04:06;19.20;99.90
20045;DHT22;10183;47.808;9.476;2023-06-05T08:06:33;19.30;99.90
20045;DHT22;10183;47.808;9.476;2023-06-05T08:08:59;19.60;99.90
20045;DHT22;10183;47.808;9.476;2023-06-05T08:11:26;19.80;99.90
20045;DHT22;10183;47.808;9.476;2023-06-05T08:13:52;20.20;99.90
20045;DHT22;10183;47.808;9.476;2023-06-05T08:16:18;20.50;99.90
20045;DHT22;10183;47.808;9.476;2023-06-05T08:18:44;20.70;99.90
20045;DHT22;10183;47.808;9.476;2023-06-05T08:21:12;20.60;99.90
20045;DHT22;10183;47.808;9.476;2023-06-05T08:23:38;20.50;99.90
20045;DHT22;10183;47.808;9.476;2023-06-05T08:26:04;20.50;99.90
20045;DHT22;10183;47.808;9.476;2023-06-05T08:28:40;20.20;99.90
20045;DHT22;10183;47.808;9.476;2023-06-05T08:31:08;20.20;99.90
20045;DHT22;10183;47.808;9.476;2023-06-05T08:33:35;20.10;99.90
20045;DHT22;10183;47.808;9.476;2023-06-05T08:36:01;20.30;99.90
20045;DHT22;10183;47.808;9.476;2023-06-05T08:38:33;20.40;99.90
20045;DHT22;10183;47.808;9.476;2023-06-05T08:41:03;20.30;99.90
20045;DHT22;10183;47.808;9.476;2023-06-05T08:43:36;20.30;99.90
20045;DHT22;10183;47.808;9.476;2023-06-05T08:46:05;20.30;99.90
20045;DHT22;10183;47.808;9.476;2023-06-05T08:48:33;20.50;99.90
20045;DHT22;10183;47.808;9.476;2023-06-05T08:51:02;20.70;99.90
20045;DHT22;10183;47.808;9.476;2023-06-05T08:53:31;20.70;99.90
20045;DHT22;10183;47.808;9.476;2023-06-05T08:56:01;20.60;99.90
20045;DHT22;10183;47.808;9.476;2023-06-05T08:58:27;20.70;99.90
20045;DHT22;10183;47.808;9.476;2023-06-05T09:00:54;20.90;99.90
20045;DHT22;10183;47.808;9.476;2023-06-05T09:03:20;21.00;99.90
20045;DHT22;10183;47.808;9.476;2023-06-05T09:05:47;21.10;99.90
20045;DHT22;10183;47.808;9.476;2023-06-05T09:08:17;21.20;99.90
20045;DHT22;10183;47.808;9.476;2023-06-05T09:10:45;21.20;99.90
20045;DHT22;10183;47.808;9.476;2023-06-05T09:13:11;21.30;99.90
20045;DHT22;10183;47.808;9.476;2023-06-05T09:15:37;21.50;99.90
20045;DHT22;10183;47.808;9.476;2023-06-05T09:18:11;21.40;99.90
20045;DHT22;10183;47.808;9.476;2023-06-05T09:20:42;21.50;99.90
20045;DHT22;10183;47.808;9.476;2023-06-05T09:23:26;21.70;99.90
20045;DHT22;10183;47.808;9.476;2023-06-05T09:25:54;21.80;99.90
20045;DHT22;10183;47.808;9.476;2023-06-05T09:28:20;22.30;99.90
20045;DHT22;10183;47.808;9.476;2023-06-05T09:31:00;22.60;99.90
20045;DHT22;10183;47.808;9.476;2023-06-05T09:33:29;22.40;99.90
20045;DHT22;10183;47.808;9.476;2023-06-05T09:36:06;22.40;99.90
20045;DHT22;10183;47.808;9.476;2023-06-05T09:38:33;22.90;99.90
20045;DHT22;10183;47.808;9.476;2023-06-05T09:41:10;22.90;99.90
20045;DHT22;10183;47.808;9.476;2023-06-05T09:43:38;22.90;99.90
20045;DHT22;10183;47.808;9.476;2023-06-05T09:46:08;23.20;99.90
20045;DHT22;10183;47.808;9.476;2023-06-05T09:48:36;23.50;99.90
20045;DHT22;10183;47.808;9.476;2023-06-05T09:51:10;24.00;99.90
20045;DHT22;10183;47.808;9.476;2023-06-05T09:53:58;24.00;99.90
20045;DHT22;10183;47.808;9.476;2023-06-05T09:56:25;24.30;99.90
20045;DHT22;10183;47.808;9.476;2023-06-05T09:58:52;24.20;99.90
20045;DHT22;10183;47.808;9.476;2023-06-05T10:01:25;24.00;99.90
20045;DHT22;10183;47.808;9.476;2023-06-05T10:04:02;24.30;99.90
20045;DHT22;10183;47.808;9.476;2023-06-05T10:06:29;23.90;99.90
20045;DHT22;10183;47.808;9.476;2023-06-05T10:08:56;24.10;99.90
20045;DHT22;10183;47.808;9.476;2023-06-05T10:11:24;24.50;99.90
20045;DHT22;10183;47.808;9.476;2023-06-05T10:13:53;24.20;99.90
20045;DHT22;10183;47.808;9.476;2023-06-05T10:16:20;24.30;99.90
20045;DHT22;10183;47.808;9.476;2023-06-05T10:18:47;24.30;99.90
20045;DHT22;10183;47.808;9.476;2023-06-05T10:21:18;24.40;99.90
20045;DHT22;10183;47.808;9.476;2023-06-05T10:24:05;25.00;99.90
20045;DHT22;10183;47.808;9.476;2023-06-05T10:26:49;25.30;98.30
20045;DHT22;10183;47.808;9.476;2023-06-05T10:35:19;24.50;99.60
20045;DHT22;10183;47.808;9.476;2023-06-05T10:40:24;24.80;98.30
20045;DHT22;10183;47.808;9.476;2023-06-05T10:42:51;24.60;97.70
20045;DHT22;10183;47.808;9.476;2023-06-05T10:45:30;24.10;98.60
20045;DHT22;10183;47.808;9.476;2023-06-05T10:47:58;23.60;99.90
20045;DHT22;10183;47.808;9.476;2023-06-05T10:50:25;24.20;99.90
20045;DHT22;10183;47.808;9.476;2023-06-05T10:52:54;25.00;99.90
20045;DHT22;10183;47.808;9.476;2023-06-05T10:55:21;25.30;98.30
20045;DHT22;10183;47.808;9.476;2023-06-05T11:00:27;25.80;93.90
20045;DHT22;10183;47.808;9.476;2023-06-05T11:02:54;26.00;93.60
20045;DHT22;10183;47.808;9.476;2023-06-05T11:05:20;26.10;96.90
20045;DHT22;10183;47.808;9.476;2023-06-05T11:07:47;25.80;81.90
20045;DHT22;10183;47.808;9.476;2023-06-05T11:10:20;25.10;90.40
20045;DHT22;10183;47.808;9.476;2023-06-05T11:15:14;24.40;88.50
20045;DHT22;10183;47.808;9.476;2023-06-05T11:17:42;23.90;94.00
20045;DHT22;10183;47.808;9.476;2023-06-05T11:27:54;25.10;76.60
20045;DHT22;10183;47.808;9.476;2023-06-05T11:30:22;26.00;59.20
20045;DHT22;10183;47.808;9.476;2023-06-05T11:32:50;27.10;64.80
20045;DHT22;10183;47.808;9.476;2023-06-05T11:35:21;27.20;56.90
20045;DHT22;10183;47.808;9.476;2023-06-05T11:37:48;27.50;52.80
20045;DHT22;10183;47.808;9.476;2023-06-05T11:40:24;27.30;49.80
20045;DHT22;10183;47.808;9.476;2023-06-05T11:42:51;26.80;55.60
20045;DHT22;10183;47.808;9.476;2023-06-05T11:45:17;25.40;56.20
20045;DHT22;10183;47.808;9.476;2023-06-05T11:47:43;24.90;59.60
20045;DHT22;10183;47.808;9.476;2023-06-05T11:50:14;24.60;68.20
20045;DHT22;10183;47.808;9.476;2023-06-05T11:52:42;25.40;76.00
20045;DHT22;10183;47.808;9.476;2023-06-05T11:55:18;25.40;65.70
20045;DHT22;10183;47.808;9.476;2023-06-05T11:57:48;25.00;71.50
20045;DHT22;10183;47.808;9.476;2023-06-05T12:00:15;24.90;74.40
20045;DHT22;10183;47.808;9.476;2023-06-05T12:02:42;25.30;70.50
20045;DHT22;10183;47.808;9.476;2023-06-05T12:05:09;25.40;58.30
20045;DHT22;10183;47.808;9.476;2023-06-05T12:07:36;26.00;57.60
20045;DHT22;10183;47.808;9.476;2023-06-05T12:10:03;26.40;62.50
20045;DHT22;10183;47.808;9.476;2023-06-05T12:12:30;26.40;54.80
20045;DHT22;10183;47.808;9.476;2023-06-05T12:14:56;26.80;49.10
20045;DHT22;10183;47.808;9.476;2023-06-05T12:17:22;27.40;44.90
20045;DHT22;10183;47.808;9.476;2023-06-05T12:19:54;28.10;43.70
20045;DHT22;10183;47.808;9.476;2023-06-05T12:22:21;28.70;38.70
20045;DHT22;10183;47.808;9.476;2023-06-05T12:24:48;28.50;39.50
20045;DHT22;10183;47.808;9.476;2023-06-05T12:27:14;27.80;28.70
20045;DHT22;10183;47.808;9.476;2023-06-05T12:29:52;26.90;33.30
20045;DHT22;10183;47.808;9.476;2023-06-05T12:32:26;26.40;34.80
20045;DHT22;10183;47.808;9.476;2023-06-05T12:34:52;25.60;37.50
20045;DHT22;10183;47.808;9.476;2023-06-05T12:37:28;25.10;47.20
20045;DHT22;10183;47.808;9.476;2023-06-05T12:39:58;25.00;45.30
20045;DHT22;10183;47.808;9.476;2023-06-05T12:42:25;25.90;44.90
20045;DHT22;10183;47.808;9.476;2023-06-05T12:44:51;25.80;38.70
20045;DHT22;10183;47.808;9.476;2023-06-05T12:47:17;26.70;38.60
20045;DHT22;10183;47.808;9.476;2023-06-05T12:49:43;27.50;49.20
20045;DHT22;10183;47.808;9.476;2023-06-05T12:52:10;28.50;39.50
20045;DHT22;10183;47.808;9.476;2023-06-05T12:54:37;29.10;38.70
20045;DHT22;10183;47.808;9.476;2023-06-05T12:57:04;28.50;35.40
20045;DHT22;10183;47.808;9.476;2023-06-05T12:59:33;27.60;36.20
20045;DHT22;10183;47.808;9.476;2023-06-05T13:02:00;27.20;34.30
20045;DHT22;10183;47.808;9.476;2023-06-05T13:04:26;27.50;40.50
20045;DHT22;10183;47.808;9.476;2023-06-05T13:06:53;27.20;29.00
20045;DHT22;10183;47.808;9.476;2023-06-05T13:09:20;27.80;31.60
20045;DHT22;10183;47.808;9.476;2023-06-05T13:11:47;27.90;26.40
20045;DHT22;10183;47.808;9.476;2023-06-05T13:14:13;28.10;26.60
20045;DHT22;10183;47.808;9.476;2023-06-05T13:16:39;28.30;29.30
20045;DHT22;10183;47.808;9.476;2023-06-05T13:19:05;28.60;25.50
20045;DHT22;10183;47.808;9.476;2023-06-05T13:21:31;29.50;26.40
20045;DHT22;10183;47.808;9.476;2023-06-05T13:23:57;29.60;26.00
20045;DHT22;10183;47.808;9.476;2023-06-05T13:26:23;29.60;24.30
20045;DHT22;10183;47.808;9.476;2023-06-05T13:28:59;29.40;21.50
20045;DHT22;10183;47.808;9.476;2023-06-05T13:31:26;29.10;21.10
20045;DHT22;10183;47.808;9.476;2023-06-05T13:33:52;29.10;18.70
20045;DHT22;10183;47.808;9.476;2023-06-05T13:36:18;29.10;18.30
20045;DHT22;10183;47.808;9.476;2023-06-05T13:38:44;30.20;17.20
20045;DHT22;10183;47.808;9.476;2023-06-05T13:41:13;30.50;15.80
20045;DHT22;10183;47.808;9.476;2023-06-05T13:43:39;30.30;13.50
20045;DHT22;10183;47.808;9.476;2023-06-05T13:46:05;30.20;15.20
20045;DHT22;10183;47.808;9.476;2023-06-05T13:48:31;31.70;16.60
20045;DHT22;10183;47.808;9.476;2023-06-05T13:51:01;33.50;14.20
20045;DHT22;10183;47.808;9.476;2023-06-05T13:53:27;33.70;7.40
20045;DHT22;10183;47.808;9.476;2023-06-05T13:55:53;34.70;6.10
20045;DHT22;10183;47.808;9.476;2023-06-05T13:58:19;34.40;5.30
20045;DHT22;10183;47.808;9.476;2023-06-05T14:00:46;34.20;7.20
20045;DHT22;10183;47.808;9.476;2023-06-05T14:03:12;33.60;4.00
20045;DHT22;10183;47.808;9.476;2023-06-05T14:05:39;33.70;3.90
20045;DHT22;10183;47.808;9.476;2023-06-05T14:08:05;30.70;3.30
20045;DHT22;10183;47.808;9.476;2023-06-05T14:10:33;29.10;8.60
20045;DHT22;10183;47.808;9.476;2023-06-05T14:13:02;27.90;10.00
20045;DHT22;10183;47.808;9.476;2023-06-05T14:15:29;29.20;10.40
20045;DHT22;10183;47.808;9.476;2023-06-05T14:17:56;30.90;8.00
20045;DHT22;10183;47.808;9.476;2023-06-05T14:20:22;33.10;5.60
20045;DHT22;10183;47.808;9.476;2023-06-05T14:22:49;34.00;2.70
20045;DHT22;10183;47.808;9.476;2023-06-05T14:25:17;34.90;2.70
20045;DHT22;10183;47.808;9.476;2023-06-05T14:27:43;35.80;1.00
20045;DHT22;10183;47.808;9.476;2023-06-05T14:30:10;35.70;1.00
20045;DHT22;10183;47.808;9.476;2023-06-05T14:32:36;34.80;1.00
20045;DHT22;10183;47.808;9.476;2023-06-05T14:35:03;33.90;1.00
20045;DHT22;10183;47.808;9.476;2023-06-05T14:37:29;33.30;1.00
20045;DHT22;10183;47.808;9.476;2023-06-05T14:39:55;34.50;1.00
20045;DHT22;10183;47.808;9.476;2023-06-05T14:42:22;34.00;1.00
20045;DHT22;10183;47.808;9.476;2023-06-05T14:44:49;31.80;1.00
20045;DHT22;10183;47.808;9.476;2023-06-05T14:47:16;30.40;1.00
20045;DHT22;10183;47.808;9.476;2023-06-05T14:49:42;29.60;1.00
20045;DHT22;10183;47.808;9.476;2023-06-05T14:52:09;30.50;1.40
20045;DHT22;10183;47.808;9.476;2023-06-05T14:54:35;32.10;1.00
20045;DHT22;10183;47.808;9.476;2023-06-05T14:57:01;33.60;1.00
20045;DHT22;10183;47.808;9.476;2023-06-05T14:59:27;32.20;1.00
20045;DHT22;10183;47.808;9.476;2023-06-05T15:01:54;30.90;1.00
20045;DHT22;10183;47.808;9.476;2023-06-05T15:04:20;30.20;1.00
20045;DHT22;10183;47.808;9.476;2023-06-05T15:06:46;29.00;1.00
20045;DHT22;10183;47.808;9.476;2023-06-05T15:09:12;29.30;3.50
20045;DHT22;10183;47.808;9.476;2023-06-05T15:11:40;30.80;2.60
20045;DHT22;10183;47.808;9.476;2023-06-05T15:14:06;32.20;1.00
20045;DHT22;10183;47.808;9.476;2023-06-05T15:16:32;32.90;1.00
20045;DHT22;10183;47.808;9.476;2023-06-05T15:18:58;33.60;1.00
20045;DHT22;10183;47.808;9.476;2023-06-05T15:21:25;33.80;1.00
20045;DHT22;10183;47.808;9.476;2023-06-05T15:23:51;33.40;1.00
20045;DHT22;10183;47.808;9.476;2023-06-05T15:26:17;34.50;1.00
20045;DHT22;10183;47.808;9.476;2023-06-05T15:28:43;34.90;1.00
20045;DHT22;10183;47.808;9.476;2023-06-05T15:31:10;34.40;1.00
20045;DHT22;10183;47.808;9.476;2023-06-05T15:33:36;34.70;1.00
20045;DHT22;10183;47.808;9.476;2023-06-05T15:36:02;35.40;1.00
20045;DHT22;10183;47.808;9.476;2023-06-05T15:38:29;34.30;1.00
20045;DHT22;10183;47.808;9.476;2023-06-05T15:40:55;34.50;1.00
20045;DHT22;10183;47.808;9.476;2023-06-05T15:43:21;35.60;1.00
20045;DHT22;10183;47.808;9.476;2023-06-05T15:45:48;35.20;1.00
20045;DHT22;10183;47.808;9.476;2023-06-05T15:48:14;35.00;1.00
20045;DHT22;10183;47.808;9.476;2023-06-05T15:50:41;35.80;1.00
20045;DHT22;10183;47.808;9.476;2023-06-05T15:53:07;36.60;1.00
20045;DHT22;10183;47.808;9.476;2023-06-05T15:55:33;36.40;1.00
20045;DHT22;10183;47.808;9.476;2023-06-05T15:58:07;35.70;1.00